THY7PY EKCH-ENBR
Flight info
| Callsign | THY7PY |
|---|---|
| Flight time | 1h 5m |
| Altitude | 38000 |
| Route | GOLGA DCT BADAB |
| Aircraft | B738/M-SDE2E3FGHIRWXY/LB1 |
Departure
| Time | 2026-05-05 19:22 |
|---|---|
| Airport | Copenhagen Kastrup Airport (EKCH) |
Arrival
| Time | 2026-05-05 20:28 |
|---|---|
| Airport | Bergen Airport, Flesland (ENBR) |
| Time | Latitude | Longitude | Altitude | Speed | Heading |
|---|---|---|---|---|---|
| 2026-05-05 18:56 | 55.62347 | 12.65518 | 19 ft | 0 kts | 37° |
| 2026-05-05 19:10 | 55.62346 | 12.65517 | 19 ft | 1 kts | 38° |
| 2026-05-05 19:10 | 55.62335 | 12.65501 | 19 ft | 2 kts | 37° |
| 2026-05-05 19:10 | 55.62323 | 12.65485 | 19 ft | 2 kts | 37° |
| 2026-05-05 19:10 | 55.62315 | 12.65475 | 19 ft | 2 kts | 35° |
| 2026-05-05 19:11 | 55.62303 | 12.65472 | 19 ft | 2 kts | 334° |
| 2026-05-05 19:11 | 55.62294 | 12.65491 | 18 ft | 1 kts | 279° |
| 2026-05-05 19:11 | 55.62294 | 12.65502 | 18 ft | 0 kts | 266° |
| 2026-05-05 19:11 | 55.62294 | 12.65507 | 18 ft | 0 kts | 269° |
| 2026-05-05 19:14 | 55.62294 | 12.65505 | 18 ft | 1 kts | 269° |
| 2026-05-05 19:14 | 55.62294 | 12.65457 | 18 ft | 3 kts | 269° |
| 2026-05-05 19:14 | 55.62293 | 12.65431 | 18 ft | 3 kts | 269° |
| 2026-05-05 19:14 | 55.62293 | 12.65364 | 18 ft | 3 kts | 269° |
| 2026-05-05 19:15 | 55.62292 | 12.65318 | 18 ft | 5 kts | 269° |
| 2026-05-05 19:15 | 55.62291 | 12.65263 | 18 ft | 3 kts | 267° |
| 2026-05-05 19:15 | 55.62273 | 12.65214 | 18 ft | 6 kts | 205° |
| 2026-05-05 19:15 | 55.62248 | 12.65200 | 17 ft | 1 kts | 198° |
| 2026-05-05 19:16 | 55.62234 | 12.65193 | 17 ft | 5 kts | 197° |
| 2026-05-05 19:16 | 55.62182 | 12.65153 | 16 ft | 9 kts | 214° |
| 2026-05-05 19:16 | 55.62124 | 12.65085 | 16 ft | 9 kts | 213° |
| 2026-05-05 19:17 | 55.62114 | 12.65072 | 16 ft | 0 kts | 213° |
| 2026-05-05 19:17 | 55.62106 | 12.65063 | 16 ft | 4 kts | 213° |
| 2026-05-05 19:18 | 55.62063 | 12.65014 | 16 ft | 10 kts | 213° |
| 2026-05-05 19:18 | 55.61986 | 12.64925 | 16 ft | 15 kts | 213° |
| 2026-05-05 19:18 | 55.61887 | 12.64812 | 16 ft | 17 kts | 213° |
| 2026-05-05 19:18 | 55.61782 | 12.64690 | 16 ft | 19 kts | 213° |
| 2026-05-05 19:19 | 55.61661 | 12.64548 | 16 ft | 20 kts | 214° |
| 2026-05-05 19:19 | 55.61539 | 12.64410 | 16 ft | 21 kts | 212° |
| 2026-05-05 19:19 | 55.61411 | 12.64263 | 17 ft | 21 kts | 214° |
| 2026-05-05 19:19 | 55.61292 | 12.64125 | 17 ft | 18 kts | 213° |
| 2026-05-05 19:20 | 55.61189 | 12.64006 | 16 ft | 17 kts | 213° |
| 2026-05-05 19:20 | 55.61085 | 12.63888 | 17 ft | 17 kts | 213° |
| 2026-05-05 19:20 | 55.60979 | 12.63764 | 17 ft | 17 kts | 214° |
| 2026-05-05 19:20 | 55.60884 | 12.63659 | 17 ft | 16 kts | 211° |
| 2026-05-05 19:21 | 55.60807 | 12.63590 | 16 ft | 10 kts | 183° |
| 2026-05-05 19:21 | 55.60746 | 12.63671 | 16 ft | 11 kts | 131° |
| 2026-05-05 19:21 | 55.60692 | 12.63786 | 16 ft | 12 kts | 120° |
| 2026-05-05 19:21 | 55.60696 | 12.63899 | 16 ft | 8 kts | 46° |
| 2026-05-05 19:22 | 55.60776 | 12.64022 | 16 ft | 40 kts | 40° |
| 2026-05-05 19:22 | 55.61181 | 12.64649 | 16 ft | 113 kts | 40° |
| 2026-05-05 19:22 | 55.61936 | 12.65809 | 33 ft | 169 kts | 39° |
| 2026-05-05 19:22 | 55.62831 | 12.67202 | 677 ft | 175 kts | 39° |
| 2026-05-05 19:23 | 55.63703 | 12.68573 | 1585 ft | 171 kts | 38° |
| 2026-05-05 19:23 | 55.64645 | 12.70036 | 1956 ft | 190 kts | 38° |
| 2026-05-05 19:23 | 55.65752 | 12.71526 | 2209 ft | 215 kts | 22° |
| 2026-05-05 19:23 | 55.67251 | 12.71828 | 2756 ft | 225 kts | 345° |
| 2026-05-05 19:24 | 55.68671 | 12.70503 | 3308 ft | 239 kts | 327° |
| 2026-05-05 19:24 | 55.70238 | 12.69361 | 3639 ft | 250 kts | 351° |
| 2026-05-05 19:24 | 55.71973 | 12.69323 | 4444 ft | 253 kts | 360° |
| 2026-05-05 19:24 | 55.73745 | 12.69274 | 5177 ft | 259 kts | 347° |
| 2026-05-05 19:25 | 55.75334 | 12.67942 | 5980 ft | 257 kts | 316° |
| 2026-05-05 19:25 | 55.76559 | 12.65724 | 6836 ft | 257 kts | 312° |
| 2026-05-05 19:25 | 55.77822 | 12.63471 | 7555 ft | 263 kts | 314° |
| 2026-05-05 19:25 | 55.79143 | 12.61220 | 8313 ft | 267 kts | 314° |
| 2026-05-05 19:26 | 55.80500 | 12.58946 | 9039 ft | 272 kts | 314° |
| 2026-05-05 19:26 | 55.81887 | 12.56634 | 9745 ft | 277 kts | 313° |
| 2026-05-05 19:26 | 55.83309 | 12.54262 | 10283 ft | 288 kts | 313° |
| 2026-05-05 19:26 | 55.84840 | 12.51694 | 10389 ft | 315 kts | 313° |
| 2026-05-05 19:27 | 55.86468 | 12.48965 | 10500 ft | 338 kts | 314° |
| 2026-05-05 19:27 | 55.88213 | 12.46054 | 11004 ft | 348 kts | 314° |
| 2026-05-05 19:27 | 55.90008 | 12.43063 | 11590 ft | 356 kts | 314° |
| 2026-05-05 19:27 | 55.91819 | 12.40039 | 12225 ft | 361 kts | 313° |
| 2026-05-05 19:28 | 55.93644 | 12.36987 | 12973 ft | 363 kts | 313° |
| 2026-05-05 19:28 | 55.95494 | 12.33886 | 13688 ft | 366 kts | 313° |
| 2026-05-05 19:28 | 55.97347 | 12.30773 | 14411 ft | 369 kts | 313° |
| 2026-05-05 19:28 | 55.99227 | 12.27612 | 15133 ft | 372 kts | 313° |
| 2026-05-05 19:29 | 56.01109 | 12.24441 | 15834 ft | 376 kts | 312° |
| 2026-05-05 19:29 | 56.03022 | 12.21215 | 16525 ft | 379 kts | 312° |
| 2026-05-05 19:29 | 56.04942 | 12.17971 | 17191 ft | 382 kts | 312° |
| 2026-05-05 19:29 | 56.06861 | 12.14724 | 17841 ft | 385 kts | 312° |
| 2026-05-05 19:30 | 56.08816 | 12.11411 | 18480 ft | 388 kts | 312° |
| 2026-05-05 19:30 | 56.10751 | 12.08129 | 19093 ft | 391 kts | 312° |
| 2026-05-05 19:30 | 56.12737 | 12.04754 | 19700 ft | 394 kts | 312° |
| 2026-05-05 19:30 | 56.14715 | 12.01389 | 20282 ft | 397 kts | 312° |
| 2026-05-05 19:31 | 56.16727 | 11.97959 | 20863 ft | 400 kts | 312° |
| 2026-05-05 19:31 | 56.18740 | 11.94524 | 21416 ft | 403 kts | 312° |
| 2026-05-05 19:31 | 56.20785 | 11.91028 | 21969 ft | 405 kts | 312° |
| 2026-05-05 19:31 | 56.22844 | 11.87504 | 22499 ft | 408 kts | 312° |
| 2026-05-05 19:32 | 56.24884 | 11.84004 | 23017 ft | 411 kts | 312° |
| 2026-05-05 19:32 | 56.26971 | 11.80422 | 23523 ft | 414 kts | 312° |
| 2026-05-05 19:32 | 56.29038 | 11.76865 | 24014 ft | 416 kts | 312° |
| 2026-05-05 19:32 | 56.31113 | 11.73291 | 24487 ft | 419 kts | 312° |
| 2026-05-05 19:33 | 56.33228 | 11.69641 | 24958 ft | 421 kts | 312° |
| 2026-05-05 19:33 | 56.35306 | 11.65919 | 25415 ft | 423 kts | 311° |
| 2026-05-05 19:33 | 56.37362 | 11.62123 | 25857 ft | 425 kts | 310° |
| 2026-05-05 19:33 | 56.39428 | 11.58292 | 26296 ft | 428 kts | 310° |
| 2026-05-05 19:34 | 56.41489 | 11.54470 | 26710 ft | 430 kts | 310° |
| 2026-05-05 19:34 | 56.43593 | 11.50564 | 27135 ft | 432 kts | 310° |
| 2026-05-05 19:34 | 56.45673 | 11.46701 | 27530 ft | 435 kts | 310° |
| 2026-05-05 19:35 | 56.49891 | 11.38850 | 28306 ft | 439 kts | 311° |
| 2026-05-05 19:35 | 56.52011 | 11.34897 | 28686 ft | 441 kts | 310° |
| 2026-05-05 19:35 | 56.54134 | 11.30930 | 29122 ft | 442 kts | 310° |
| 2026-05-05 19:35 | 56.56276 | 11.26920 | 29619 ft | 440 kts | 310° |
| 2026-05-05 19:36 | 56.58366 | 11.23004 | 30110 ft | 439 kts | 310° |
| 2026-05-05 19:36 | 56.60481 | 11.19035 | 30606 ft | 437 kts | 310° |
| 2026-05-05 19:36 | 56.62595 | 11.15059 | 31097 ft | 436 kts | 310° |
| 2026-05-05 19:36 | 56.64694 | 11.11107 | 31573 ft | 434 kts | 310° |
| 2026-05-05 19:37 | 56.66772 | 11.07188 | 32037 ft | 432 kts | 310° |
| 2026-05-05 19:37 | 56.68837 | 11.03285 | 32489 ft | 431 kts | 310° |
| 2026-05-05 19:37 | 56.70907 | 10.99373 | 33023 ft | 427 kts | 310° |
| 2026-05-05 19:37 | 56.72949 | 10.95509 | 33539 ft | 423 kts | 310° |
| 2026-05-05 19:38 | 56.74974 | 10.91670 | 34067 ft | 419 kts | 309° |
| 2026-05-05 19:38 | 56.76965 | 10.87887 | 34534 ft | 416 kts | 309° |
| 2026-05-05 19:38 | 56.78966 | 10.84078 | 35008 ft | 413 kts | 309° |
| 2026-05-05 19:38 | 56.80926 | 10.80341 | 35455 ft | 409 kts | 309° |
| 2026-05-05 19:39 | 56.82882 | 10.76603 | 35835 ft | 408 kts | 309° |
| 2026-05-05 19:39 | 56.84822 | 10.72886 | 36164 ft | 407 kts | 309° |
| 2026-05-05 19:39 | 56.86754 | 10.69178 | 36467 ft | 407 kts | 309° |
| 2026-05-05 19:39 | 56.88705 | 10.65429 | 36758 ft | 407 kts | 309° |
| 2026-05-05 19:40 | 56.90646 | 10.61695 | 37041 ft | 407 kts | 309° |
| 2026-05-05 19:40 | 56.92595 | 10.57939 | 37315 ft | 407 kts | 309° |
| 2026-05-05 19:40 | 56.94551 | 10.54164 | 37581 ft | 407 kts | 309° |
| 2026-05-05 19:40 | 56.96492 | 10.50414 | 37834 ft | 407 kts | 309° |
| 2026-05-05 19:41 | 56.98410 | 10.46707 | 37974 ft | 410 kts | 309° |
| 2026-05-05 19:41 | 57.02345 | 10.39086 | 37965 ft | 414 kts | 308° |
| 2026-05-05 19:42 | 57.06286 | 10.31419 | 37966 ft | 416 kts | 307° |
| 2026-05-05 19:42 | 57.10210 | 10.23739 | 37966 ft | 421 kts | 306° |
| 2026-05-05 19:43 | 57.14224 | 10.15852 | 37968 ft | 429 kts | 306° |
| 2026-05-05 19:43 | 57.18285 | 10.07856 | 37964 ft | 426 kts | 306° |
| 2026-05-05 19:44 | 57.22327 | 9.99877 | 37966 ft | 424 kts | 306° |
| 2026-05-05 19:44 | 57.26323 | 9.91958 | 37966 ft | 425 kts | 306° |
| 2026-05-05 19:45 | 57.30353 | 9.83948 | 37966 ft | 425 kts | 306° |
| 2026-05-05 19:45 | 57.34360 | 9.75958 | 37966 ft | 425 kts | 306° |
| 2026-05-05 19:46 | 57.38358 | 9.67961 | 37966 ft | 425 kts | 306° |
| 2026-05-05 19:46 | 57.42357 | 9.59934 | 37966 ft | 425 kts | 306° |
| 2026-05-05 19:47 | 57.46372 | 9.51845 | 37966 ft | 425 kts | 306° |
| 2026-05-05 19:47 | 57.50356 | 9.43793 | 37966 ft | 425 kts | 306° |
| 2026-05-05 19:48 | 57.54346 | 9.35699 | 37966 ft | 425 kts | 306° |
| 2026-05-05 19:48 | 57.58318 | 9.27608 | 37965 ft | 425 kts | 306° |
| 2026-05-05 19:49 | 57.62287 | 9.19495 | 37966 ft | 424 kts | 306° |
| 2026-05-05 19:49 | 57.66275 | 9.11319 | 37966 ft | 425 kts | 306° |
| 2026-05-05 19:50 | 57.70211 | 9.03234 | 37958 ft | 424 kts | 305° |
| 2026-05-05 19:50 | 57.74173 | 8.95073 | 37949 ft | 422 kts | 304° |
| 2026-05-05 19:51 | 57.78083 | 8.86982 | 37940 ft | 421 kts | 304° |
| 2026-05-05 19:51 | 57.81981 | 8.78868 | 37939 ft | 420 kts | 304° |
| 2026-05-05 19:52 | 57.85876 | 8.70730 | 37939 ft | 421 kts | 304° |
| 2026-05-05 19:52 | 57.89785 | 8.62544 | 37939 ft | 421 kts | 304° |
| 2026-05-05 19:53 | 57.93692 | 8.54336 | 37938 ft | 421 kts | 304° |
| 2026-05-05 19:53 | 57.97583 | 8.46134 | 37938 ft | 421 kts | 304° |
| 2026-05-05 19:54 | 58.01478 | 8.37894 | 37938 ft | 421 kts | 304° |
| 2026-05-05 19:54 | 58.05353 | 8.29662 | 37939 ft | 421 kts | 303° |
| 2026-05-05 19:55 | 58.09232 | 8.21393 | 37939 ft | 420 kts | 303° |
| 2026-05-05 19:55 | 58.13096 | 8.13129 | 37939 ft | 420 kts | 303° |
| 2026-05-05 19:56 | 58.16940 | 8.04878 | 37939 ft | 420 kts | 303° |
| 2026-05-05 19:56 | 58.20777 | 7.96614 | 37967 ft | 419 kts | 303° |
| 2026-05-05 19:57 | 58.24611 | 7.88334 | 37966 ft | 419 kts | 303° |
| 2026-05-05 19:57 | 58.28439 | 7.80036 | 37966 ft | 419 kts | 303° |
| 2026-05-05 19:58 | 58.32259 | 7.71723 | 37966 ft | 419 kts | 303° |
| 2026-05-05 19:58 | 58.36094 | 7.63349 | 37966 ft | 419 kts | 303° |
| 2026-05-05 19:59 | 58.39904 | 7.55000 | 37966 ft | 419 kts | 303° |
| 2026-05-05 19:59 | 58.43723 | 7.46601 | 37966 ft | 419 kts | 303° |
| 2026-05-05 20:00 | 58.47519 | 7.38224 | 37966 ft | 419 kts | 303° |
| 2026-05-05 20:00 | 58.51332 | 7.29770 | 37965 ft | 419 kts | 302° |
| 2026-05-05 20:01 | 58.55123 | 7.21332 | 37966 ft | 418 kts | 302° |
| 2026-05-05 20:01 | 58.58902 | 7.12904 | 37966 ft | 418 kts | 302° |
| 2026-05-05 20:02 | 58.62674 | 7.04464 | 37966 ft | 418 kts | 302° |
| 2026-05-05 20:02 | 58.66417 | 6.96057 | 37966 ft | 418 kts | 302° |
| 2026-05-05 20:03 | 58.70153 | 6.87624 | 37980 ft | 418 kts | 301° |
| 2026-05-05 20:03 | 58.73901 | 6.79132 | 37999 ft | 418 kts | 301° |
| 2026-05-05 20:04 | 58.77660 | 6.70587 | 38018 ft | 419 kts | 302° |
| 2026-05-05 20:04 | 58.81386 | 6.62089 | 38020 ft | 419 kts | 302° |
| 2026-05-05 20:05 | 58.85145 | 6.53485 | 38019 ft | 419 kts | 302° |
| 2026-05-05 20:05 | 58.88888 | 6.44888 | 38019 ft | 419 kts | 301° |
| 2026-05-05 20:06 | 58.92563 | 6.36413 | 37990 ft | 422 kts | 301° |
| 2026-05-05 20:06 | 58.94404 | 6.32157 | 37533 ft | 423 kts | 301° |
| 2026-05-05 20:06 | 58.96291 | 6.27782 | 36797 ft | 425 kts | 301° |
| 2026-05-05 20:06 | 58.98196 | 6.23360 | 36143 ft | 425 kts | 301° |
| 2026-05-05 20:07 | 59.00075 | 6.18992 | 35461 ft | 425 kts | 300° |
| 2026-05-05 20:07 | 59.01960 | 6.14600 | 34738 ft | 427 kts | 301° |
| 2026-05-05 20:07 | 59.03911 | 6.10323 | 34056 ft | 433 kts | 306° |
| 2026-05-05 20:07 | 59.06166 | 6.06345 | 33331 ft | 448 kts | 313° |
| 2026-05-05 20:08 | 59.08879 | 6.03043 | 32489 ft | 469 kts | 327° |
| 2026-05-05 20:08 | 59.11922 | 6.00794 | 31701 ft | 479 kts | 336° |
| 2026-05-05 20:08 | 59.15155 | 5.99263 | 30837 ft | 485 kts | 341° |
| 2026-05-05 20:08 | 59.18463 | 5.97970 | 29916 ft | 488 kts | 342° |
| 2026-05-05 20:09 | 59.21800 | 5.96700 | 28933 ft | 490 kts | 343° |
| 2026-05-05 20:09 | 59.25105 | 5.95442 | 28091 ft | 488 kts | 343° |
| 2026-05-05 20:09 | 59.28392 | 5.94197 | 27472 ft | 472 kts | 343° |
| 2026-05-05 20:09 | 59.31544 | 5.93002 | 26831 ft | 468 kts | 343° |
| 2026-05-05 20:10 | 59.34758 | 5.91764 | 26113 ft | 469 kts | 343° |
| 2026-05-05 20:10 | 59.37928 | 5.90544 | 25407 ft | 465 kts | 343° |
| 2026-05-05 20:10 | 59.41036 | 5.89347 | 24727 ft | 461 kts | 343° |
| 2026-05-05 20:10 | 59.44214 | 5.88402 | 23946 ft | 462 kts | 348° |
| 2026-05-05 20:11 | 59.47355 | 5.87826 | 23215 ft | 454 kts | 350° |
| 2026-05-05 20:11 | 59.50439 | 5.87327 | 22561 ft | 441 kts | 350° |
| 2026-05-05 20:11 | 59.53493 | 5.86828 | 21887 ft | 438 kts | 350° |
| 2026-05-05 20:11 | 59.56398 | 5.86350 | 21229 ft | 436 kts | 350° |
| 2026-05-05 20:12 | 59.59420 | 5.85852 | 20556 ft | 432 kts | 350° |
| 2026-05-05 20:12 | 59.62378 | 5.85365 | 19902 ft | 429 kts | 350° |
| 2026-05-05 20:12 | 59.65328 | 5.84879 | 19244 ft | 425 kts | 350° |
| 2026-05-05 20:12 | 59.68250 | 5.84397 | 18589 ft | 422 kts | 350° |
| 2026-05-05 20:13 | 59.71186 | 5.83912 | 17928 ft | 418 kts | 351° |
| 2026-05-05 20:13 | 59.74049 | 5.83439 | 17266 ft | 415 kts | 351° |
| 2026-05-05 20:13 | 59.76895 | 5.82967 | 16612 ft | 412 kts | 351° |
| 2026-05-05 20:13 | 59.79733 | 5.82655 | 15947 ft | 410 kts | 354° |
| 2026-05-05 20:14 | 59.82550 | 5.82748 | 15263 ft | 411 kts | 1° |
| 2026-05-05 20:14 | 59.85397 | 5.83489 | 14607 ft | 409 kts | 6° |
| 2026-05-05 20:14 | 59.88171 | 5.84454 | 13954 ft | 406 kts | 7° |
| 2026-05-05 20:14 | 59.90907 | 5.85454 | 13359 ft | 399 kts | 7° |
| 2026-05-05 20:15 | 59.93557 | 5.86443 | 12749 ft | 385 kts | 8° |
| 2026-05-05 20:15 | 59.96188 | 5.87431 | 12242 ft | 376 kts | 8° |
| 2026-05-05 20:15 | 59.98665 | 5.88341 | 11805 ft | 357 kts | 4° |
| 2026-05-05 20:15 | 60.01057 | 5.88310 | 11224 ft | 337 kts | 344° |
| 2026-05-05 20:16 | 60.03175 | 5.86817 | 10642 ft | 315 kts | 323° |
| 2026-05-05 20:16 | 60.04818 | 5.84203 | 10285 ft | 287 kts | 305° |
| 2026-05-05 20:16 | 60.05890 | 5.81163 | 10209 ft | 255 kts | 290° |
| 2026-05-05 20:16 | 60.06463 | 5.78016 | 10149 ft | 228 kts | 277° |
| 2026-05-05 20:17 | 60.06634 | 5.74941 | 10138 ft | 222 kts | 257° |
| 2026-05-05 20:17 | 60.06006 | 5.72259 | 9995 ft | 215 kts | 224° |
| 2026-05-05 20:17 | 60.04642 | 5.71053 | 9751 ft | 225 kts | 188° |
| 2026-05-05 20:17 | 60.03057 | 5.71370 | 9539 ft | 232 kts | 180° |
| 2026-05-05 20:18 | 60.01501 | 5.71088 | 9270 ft | 222 kts | 205° |
| 2026-05-05 20:18 | 60.00251 | 5.69449 | 9020 ft | 215 kts | 226° |
| 2026-05-05 20:18 | 59.99188 | 5.67317 | 8782 ft | 216 kts | 226° |
| 2026-05-05 20:18 | 59.98089 | 5.65292 | 8533 ft | 217 kts | 224° |
| 2026-05-05 20:19 | 59.96967 | 5.63260 | 8275 ft | 216 kts | 231° |
| 2026-05-05 20:19 | 59.96145 | 5.60780 | 8019 ft | 214 kts | 242° |
| 2026-05-05 20:19 | 59.95470 | 5.58185 | 7775 ft | 214 kts | 245° |
| 2026-05-05 20:19 | 59.95114 | 5.55332 | 7504 ft | 216 kts | 270° |
| 2026-05-05 20:20 | 59.95494 | 5.52416 | 7254 ft | 221 kts | 295° |
| 2026-05-05 20:20 | 59.96518 | 5.50094 | 7004 ft | 231 kts | 321° |
| 2026-05-05 20:20 | 59.98018 | 5.48841 | 6774 ft | 237 kts | 338° |
| 2026-05-05 20:20 | 59.99560 | 5.47938 | 6629 ft | 225 kts | 338° |
| 2026-05-05 20:21 | 60.01051 | 5.47040 | 6102 ft | 231 kts | 337° |
| 2026-05-05 20:21 | 60.02609 | 5.46065 | 5366 ft | 243 kts | 338° |
| 2026-05-05 20:21 | 60.04259 | 5.45030 | 4608 ft | 251 kts | 339° |
| 2026-05-05 20:21 | 60.05924 | 5.43990 | 3935 ft | 254 kts | 339° |
| 2026-05-05 20:22 | 60.07594 | 5.42920 | 3188 ft | 257 kts | 336° |
| 2026-05-05 20:22 | 60.09063 | 5.41127 | 2878 ft | 237 kts | 313° |
| 2026-05-05 20:22 | 60.09869 | 5.38479 | 2783 ft | 213 kts | 286° |
| 2026-05-05 20:22 | 60.10163 | 5.35723 | 2696 ft | 197 kts | 280° |
| 2026-05-05 20:23 | 60.10393 | 5.33065 | 2510 ft | 188 kts | 280° |
| 2026-05-05 20:23 | 60.10636 | 5.30541 | 2510 ft | 185 kts | 285° |
| 2026-05-05 20:23 | 60.11268 | 5.28350 | 2457 ft | 180 kts | 320° |
| 2026-05-05 20:23 | 60.12400 | 5.27469 | 2538 ft | 176 kts | 345° |
| 2026-05-05 20:24 | 60.13605 | 5.27064 | 2529 ft | 176 kts | 346° |
| 2026-05-05 20:24 | 60.14785 | 5.26673 | 2467 ft | 162 kts | 346° |
| 2026-05-05 20:24 | 60.15853 | 5.26317 | 2492 ft | 155 kts | 346° |
| 2026-05-05 20:24 | 60.16904 | 5.25966 | 2433 ft | 153 kts | 346° |
| 2026-05-05 20:25 | 60.17951 | 5.25618 | 2222 ft | 147 kts | 346° |
| 2026-05-05 20:25 | 60.18935 | 5.25290 | 2063 ft | 143 kts | 346° |
| 2026-05-05 20:25 | 60.19913 | 5.24964 | 1866 ft | 143 kts | 346° |
| 2026-05-05 20:25 | 60.20895 | 5.24637 | 1671 ft | 142 kts | 346° |
| 2026-05-05 20:26 | 60.21878 | 5.24309 | 1476 ft | 142 kts | 346° |
| 2026-05-05 20:26 | 60.22844 | 5.23986 | 1285 ft | 142 kts | 347° |
| 2026-05-05 20:26 | 60.23814 | 5.23662 | 1093 ft | 141 kts | 347° |
| 2026-05-05 20:26 | 60.24791 | 5.23336 | 899 ft | 141 kts | 347° |
| 2026-05-05 20:27 | 60.25752 | 5.23012 | 719 ft | 140 kts | 348° |
| 2026-05-05 20:27 | 60.26715 | 5.22711 | 529 ft | 138 kts | 347° |
| 2026-05-05 20:27 | 60.27669 | 5.22375 | 329 ft | 139 kts | 348° |
| 2026-05-05 20:27 | 60.28611 | 5.22062 | 175 ft | 135 kts | 348° |
| 2026-05-05 20:28 | 60.29315 | 5.21822 | 174 ft | 69 kts | 351° |
| 2026-05-05 20:28 | 60.29614 | 5.21718 | 174 ft | 18 kts | 349° |
| 2026-05-05 20:28 | 60.29679 | 5.21711 | 174 ft | 7 kts | 15° |
| 2026-05-05 20:28 | 60.29713 | 5.21772 | 174 ft | 6 kts | 77° |
| 2026-05-05 20:29 | 60.29716 | 5.21803 | 174 ft | 2 kts | 81° |
| 2026-05-05 20:29 | 60.29721 | 5.21866 | 174 ft | 3 kts | 81° |
| 2026-05-05 20:29 | 60.29724 | 5.21906 | 174 ft | 2 kts | 81° |
| 2026-05-05 20:29 | 60.29723 | 5.21961 | 174 ft | 3 kts | 108° |
| 2026-05-05 20:30 | 60.29709 | 5.22003 | 174 ft | 3 kts | 142° |
| 2026-05-05 20:30 | 60.29685 | 5.22017 | 174 ft | 3 kts | 169° |
| 2026-05-05 20:30 | 60.29639 | 5.22034 | 174 ft | 9 kts | 169° |
| 2026-05-05 20:30 | 60.29559 | 5.22065 | 174 ft | 13 kts | 169° |
| 2026-05-05 20:31 | 60.29469 | 5.22094 | 174 ft | 12 kts | 171° |
| 2026-05-05 20:31 | 60.29386 | 5.22119 | 174 ft | 11 kts | 172° |
| 2026-05-05 20:31 | 60.29309 | 5.22145 | 174 ft | 10 kts | 170° |
| 2026-05-05 20:31 | 60.29240 | 5.22168 | 174 ft | 9 kts | 170° |
| 2026-05-05 20:32 | 60.29177 | 5.22190 | 174 ft | 8 kts | 170° |
| 2026-05-05 20:32 | 60.29130 | 5.22206 | 174 ft | 3 kts | 170° |
| 2026-05-05 20:32 | 60.29105 | 5.22216 | 174 ft | 4 kts | 166° |
| 2026-05-05 20:32 | 60.29076 | 5.22259 | 174 ft | 5 kts | 112° |
| 2026-05-05 20:33 | 60.29071 | 5.22328 | 174 ft | 4 kts | 109° |
| 2026-05-05 20:33 | 60.29059 | 5.22376 | 174 ft | 3 kts | 124° |
| 2026-05-05 20:33 | 60.29044 | 5.22409 | 174 ft | 2 kts | 133° |
| 2026-05-05 20:33 | 60.29029 | 5.22443 | 174 ft | 5 kts | 131° |
| 2026-05-05 20:34 | 60.29003 | 5.22503 | 174 ft | 5 kts | 131° |
| 2026-05-05 20:34 | 60.28981 | 5.22553 | 174 ft | 2 kts | 131° |
| 2026-05-05 20:34 | 60.28971 | 5.22575 | 174 ft | 2 kts | 132° |
| 2026-05-05 20:34 | 60.28965 | 5.22590 | 174 ft | 0 kts | 131° |